ETHF/FRZ METAR and TAF weather

Enter ICAO airport designator
Station Type Date Time Source
ETHF METAR 2020/05/30 03:20 UTC NOAA

ETHF 300320Z 31004KT 9999 FEW150 06/03 Q1025 BLU+


Station Type Date Time Source
ETHF Decoded METAR 2020/05/30 03:20 UTC NOAA

Fritzlar, Germany (ETHF) 51-07N 009-17E 181M
May 29, 2020 - 11:20 PM EDT / 2020.05.30 0320 UTC
Wind: from the NW (310 degrees) at 5 MPH (4 KT):0
Visibility: greater than 7 mile(s):0
Sky conditions: mostly clear
Temperature: 42 F (6 C)
Dew Point: 37 F (3 C)
Relative Humidity: 81%
Pressure (altimeter): 30.27 in. Hg (1025 hPa)
ob: ETHF 300320Z 31004KT 9999 FEW150 06/03 Q1025 BLU+
cycle: 3

Station Type Date Time Source
ETHF TAF 2020/02/03 18:30 UTC NOAA

TAF ETHF 031723Z 0318/0413 23006KT 9999 NSW BKN030
TEMPO 0318/0403 25005KT 5000 RA FEW010 BKN020

Example: see airport list